Time;durP1;ratioP1;P1;durP2;ratioP2;P2;SDS_P1;SDS_P2;PMS_P1;PMS_P2;Temp;Humidity;BMP_temperature;BMP_pressure;BME280_temperature;BME280_humidity;BME280_pressure;Samples;Min_cycle;Max_cycle;Signal;HPM_P1;HPM_P2
2022/04/06 00:00:21;;;;;;;28.67;20.57;;;9.80;7.90;;;;;;4927166;29;20188;-65
2022/04/06 00:02:48;;;;;;;28.83;19.60;;;9.80;3.10;;;;;;4924561;29;20214;-65
2022/04/06 00:05:15;;;;;;;27.83;21.00;;;9.80;1.00;;;;;;4926752;29;20637;-65
2022/04/06 00:07:43;;;;;;;33.43;20.67;;;9.80;1.20;;;;;;4924943;29;20209;-65
2022/04/06 00:10:13;;;;;;;38.10;21.70;;;9.80;1.00;;;;;;4909824;29;21421;-65
2022/04/06 00:12:42;;;;;;;30.57;21.57;;;9.80;1.00;;;;;;4923517;29;20199;-65
2022/04/06 00:15:11;;;;;;;29.10;21.07;;;9.80;1.00;;;;;;4925568;29;20246;-64
2022/04/06 00:17:40;;;;;;;29.23;20.77;;;9.80;1.00;;;;;;4922323;29;20230;-65
2022/04/06 00:20:08;;;;;;;34.73;21.37;;;9.90;1.00;;;;;;4926559;29;20211;-65
2022/04/06 00:22:36;;;;;;;32.37;20.27;;;9.80;1.00;;;;;;4925359;29;20212;-64
2022/04/06 00:25:03;;;;;;;34.53;21.13;;;9.80;1.00;;;;;;4891567;29;20271;-65
2022/04/06 00:27:30;;;;;;;34.50;20.23;;;9.80;1.00;;;;;;4912283;29;20270;-65
2022/04/06 00:29:59;;;;;;;32.83;19.90;;;9.80;1.00;;;;;;4924428;29;20228;-66
2022/04/06 00:32:26;;;;;;;31.87;18.37;;;9.80;1.00;;;;;;4925490;29;20721;-66
2022/04/06 00:37:42;;;;;;;27.30;17.10;;;9.80;1.00;;;;;;4923674;29;20204;-65
2022/04/06 00:40:12;;;;;;;33.90;17.90;;;9.80;1.00;;;;;;4924959;29;20203;-65
2022/04/06 00:42:39;;;;;;;27.90;16.83;;;9.80;1.00;;;;;;4925166;29;20219;-65
2022/04/06 00:45:07;;;;;;;30.47;15.90;;;9.80;1.00;;;;;;4922250;29;20211;-65
2022/04/06 00:47:34;;;;;;;38.27;17.00;;;9.80;1.00;;;;;;4923855;29;20269;-65
2022/04/06 00:50:03;;;;;;;33.50;16.73;;;9.80;1.00;;;;;;4924678;29;21166;-66
2022/04/06 00:52:31;;;;;;;26.90;14.40;;;9.70;1.00;;;;;;4921643;29;20211;-65
2022/04/06 00:55:01;;;;;;;28.03;17.17;;;9.80;1.00;;;;;;4923873;29;20226;-65
2022/04/06 00:57:29;;;;;;;24.37;14.30;;;9.70;1.00;;;;;;4923345;29;20315;-65
2022/04/06 00:59:57;;;;;;;37.40;15.53;;;9.70;1.00;;;;;;4923056;29;20216;-66
2022/04/06 01:02:25;;;;;;;31.60;13.87;;;9.70;1.00;;;;;;4922710;29;20230;-65
2022/04/06 01:04:53;;;;;;;29.47;13.43;;;9.70;99.90;;;;;;4926178;29;20196;-65
2022/04/06 01:07:24;;;;;;;29.40;14.53;;;9.70;1.00;;;;;;4924600;29;20271;-65
2022/04/06 01:09:53;;;;;;;27.77;13.77;;;9.70;99.90;;;;;;4906073;29;20189;-65
2022/04/06 01:12:22;;;;;;;22.67;13.63;;;9.70;99.90;;;;;;4923756;29;20214;-66
2022/04/06 01:14:49;;;;;;;25.30;14.50;;;9.70;99.90;;;;;;4923510;29;20196;-66
2022/04/06 01:17:16;;;;;;;31.83;13.63;;;9.70;99.90;;;;;;4926955;29;20752;-67
2022/04/06 01:19:45;;;;;;;22.20;12.33;;;9.70;99.90;;;;;;4924977;29;20220;-68
2022/04/06 01:22:13;;;;;;;29.67;14.13;;;9.70;99.90;;;;;;4923178;29;20212;-67
2022/04/06 01:24:41;;;;;;;24.27;13.23;;;9.70;99.90;;;;;;4922201;29;20286;-67
2022/04/06 01:27:09;;;;;;;21.83;12.80;;;9.60;99.90;;;;;;4908994;29;20219;-67
2022/04/06 01:29:37;;;;;;;25.97;13.50;;;9.70;99.90;;;;;;4916854;29;20207;-66
2022/04/06 01:32:27;;;;;;;27.40;12.10;;;9.60;99.90;;;;;;4922747;29;20255;-67
2022/04/06 01:34:56;;;;;;;18.43;12.77;;;9.70;99.90;;;;;;4924043;29;20195;-67
2022/04/06 01:37:23;;;;;;;23.53;12.50;;;9.60;99.90;;;;;;4923004;29;20259;-67
2022/04/06 01:39:51;;;;;;;27.73;11.93;;;9.60;99.90;;;;;;4924082;29;20334;-67
2022/04/06 01:42:20;;;;;;;24.27;12.60;;;9.60;99.90;;;;;;4925442;29;20906;-65
2022/04/06 01:44:48;;;;;;;21.87;11.00;;;9.60;99.90;;;;;;4921924;29;20295;-63
2022/04/06 01:47:17;;;;;;;23.70;12.13;;;9.60;3.40;;;;;;4923754;29;20731;-65
2022/04/06 01:52:30;;;;;;;18.33;10.67;;;9.60;33.60;;;;;;4924202;29;20199;-64
2022/04/06 01:55:12;;;;;;;19.33;11.80;;;9.60;1.00;;;;;;4911541;29;20207;-65
2022/04/06 01:57:41;;;;;;;21.47;11.13;;;9.60;19.70;;;;;;4922043;29;20211;-65
2022/04/06 02:00:10;;;;;;;22.97;11.33;;;9.70;1.00;;;;;;4917305;29;20251;-65
2022/04/06 02:02:43;;;;;;;19.47;10.97;;;9.60;1.00;;;;;;4922721;29;20300;-65
2022/04/06 02:05:13;;;;;;;18.33;10.20;;;9.50;1.00;;;;;;4920739;29;20196;-65
2022/04/06 02:07:42;;;;;;;22.77;10.33;;;9.50;1.00;;;;;;4922227;29;20227;-65
2022/04/06 02:10:10;;;;;;;23.70;10.33;;;9.50;1.00;;;;;;4911479;29;20192;-65
2022/04/06 02:12:38;;;;;;;18.03;10.30;;;9.50;1.00;;;;;;4922239;29;20211;-67
2022/04/06 02:15:06;;;;;;;21.83;9.37;;;9.50;1.00;;;;;;4922932;29;22300;-67
2022/04/06 02:17:33;;;;;;;17.40;9.23;;;9.50;1.00;;;;;;4923691;29;20290;-67
2022/04/06 02:20:00;;;;;;;21.37;9.60;;;9.50;1.00;;;;;;4922261;29;20667;-67
2022/04/06 02:22:27;;;;;;;24.50;9.47;;;9.50;1.00;;;;;;4922481;29;20314;-67
2022/04/06 02:24:54;;;;;;;22.00;9.33;;;9.50;1.00;;;;;;4919869;29;20211;-65
2022/04/06 02:27:21;;;;;;;18.33;10.00;;;9.50;1.00;;;;;;4921398;29;20223;-67
2022/04/06 02:29:48;;;;;;;26.90;10.63;;;9.50;1.00;;;;;;4922518;29;20204;-65
2022/04/06 02:32:15;;;;;;;20.73;10.13;;;9.50;1.00;;;;;;4920924;29;20587;-66
2022/04/06 02:34:42;;;;;;;18.73;9.23;;;9.50;1.00;;;;;;4921271;29;20196;-64
2022/04/06 02:37:10;;;;;;;19.93;10.20;;;9.50;1.00;;;;;;4920666;29;20203;-66
2022/04/06 02:39:37;;;;;;;17.53;9.33;;;9.50;1.00;;;;;;4904455;29;20345;-66
2022/04/06 02:42:05;;;;;;;22.67;9.20;;;9.50;1.00;;;;;;4923097;29;20207;-67
2022/04/06 02:44:32;;;;;;;21.67;9.23;;;9.40;1.00;;;;;;4907149;29;20212;-64
2022/04/06 02:46:59;;;;;;;23.17;10.10;;;9.40;1.00;;;;;;4904535;29;20247;-64
2022/04/06 02:49:26;;;;;;;18.23;9.23;;;9.40;1.00;;;;;;4921363;29;20210;-64
2022/04/06 02:51:53;;;;;;;22.17;9.47;;;9.40;1.00;;;;;;4921131;29;20207;-65
2022/04/06 02:54:20;;;;;;;22.50;8.60;;;9.40;1.00;;;;;;4923680;29;20251;-66
2022/04/06 02:56:48;;;;;;;17.53;9.33;;;9.40;1.00;;;;;;4921381;29;21002;-64
2022/04/06 02:59:15;;;;;;;20.63;8.77;;;9.50;1.00;;;;;;4892111;29;20936;-65
2022/04/06 03:01:42;;;;;;;20.00;9.37;;;9.40;1.00;;;;;;4921208;29;20215;-64
2022/04/06 03:04:10;;;;;;;16.80;8.90;;;9.40;1.00;;;;;;4905948;29;20205;-64
2022/04/06 03:06:37;;;;;;;17.33;9.10;;;9.40;1.00;;;;;;4921701;29;20251;-66
2022/04/06 03:09:04;;;;;;;20.43;9.70;;;9.40;1.00;;;;;;4918957;29;20210;-65
2022/04/06 03:11:31;;;;;;;18.33;10.33;;;9.40;1.00;;;;;;4920702;29;20204;-64
2022/04/06 03:13:58;;;;;;;20.90;10.77;;;9.40;1.00;;;;;;4920559;29;20707;-65
2022/04/06 03:16:25;;;;;;;22.43;9.60;;;9.50;1.00;;;;;;4905961;29;20208;-65
2022/04/06 03:18:52;;;;;;;18.63;11.10;;;9.40;1.00;;;;;;4923147;29;20204;-66
2022/04/06 03:21:19;;;;;;;18.43;9.90;;;9.40;1.00;;;;;;4920578;29;20229;-66
2022/04/06 03:23:46;;;;;;;22.63;10.30;;;9.40;1.00;;;;;;4888913;29;20211;-66
2022/04/06 03:26:14;;;;;;;18.10;9.65;;;9.40;1.00;;;;;;4922081;29;20208;-66
2022/04/06 03:28:41;;;;;;;14.43;9.10;;;9.40;1.00;;;;;;4907502;29;20880;-66
2022/04/06 03:31:08;;;;;;;21.60;10.13;;;9.40;1.00;;;;;;4911741;29;20231;-65
2022/04/06 03:33:35;;;;;;;19.37;9.67;;;9.40;1.00;;;;;;4921836;29;20254;-65
2022/04/06 03:36:03;;;;;;;20.90;10.13;;;9.40;1.00;;;;;;4920449;29;20658;-65
2022/04/06 03:38:31;;;;;;;18.80;9.23;;;9.40;1.00;;;;;;4904073;29;20311;-63
2022/04/06 03:40:58;;;;;;;18.33;9.87;;;9.40;1.00;;;;;;4920567;29;20246;-67
2022/04/06 03:43:25;;;;;;;25.63;10.00;;;9.40;1.00;;;;;;4922249;29;20208;-65
2022/04/06 03:45:53;;;;;;;16.33;9.93;;;9.40;1.00;;;;;;4910209;29;20271;-65
2022/04/06 03:48:22;;;;;;;21.43;9.43;;;9.40;99.90;;;;;;4921643;29;20240;-65
2022/04/06 03:50:50;;;;;;;22.63;10.40;;;9.40;1.00;;;;;;4924549;29;20192;-65
2022/04/06 03:53:18;;;;;;;17.77;9.70;;;9.40;99.90;;;;;;4925817;29;20841;-65
2022/04/06 03:55:45;;;;;;;18.80;9.20;;;9.40;99.90;;;;;;4914852;28;20220;-64
2022/04/06 03:58:12;;;;;;;14.37;9.03;;;9.40;99.90;;;;;;4924244;29;20234;-67
2022/04/06 04:00:40;;;;;;;14.97;8.67;;;9.40;1.00;;;;;;4914764;29;20204;-66
2022/04/06 04:03:07;;;;;;;16.23;8.73;;;9.40;99.90;;;;;;4924277;29;20204;-64
2022/04/06 04:05:34;;;;;;;18.47;8.33;;;9.40;99.90;;;;;;4924854;29;20198;-64
2022/04/06 04:08:02;;;;;;;19.20;8.70;;;9.40;99.90;;;;;;4915000;29;20262;-64
2022/04/06 04:10:29;;;;;;;20.37;8.30;;;9.40;99.90;;;;;;4925376;29;20219;-65
2022/04/06 04:12:56;;;;;;;11.20;8.03;;;9.40;99.90;;;;;;4925471;29;20205;-65
2022/04/06 04:15:24;;;;;;;15.90;7.47;;;9.40;99.90;;;;;;4924208;29;20200;-65
2022/04/06 04:17:51;;;;;;;19.77;7.63;;;9.40;99.90;;;;;;4915560;29;20260;-66
2022/04/06 04:20:18;;;;;;;13.77;6.97;;;9.40;99.90;;;;;;4925791;29;20216;-66
2022/04/06 04:22:46;;;;;;;13.63;6.40;;;9.40;99.90;;;;;;4924004;29;20295;-66
2022/04/06 04:25:14;;;;;;;11.17;5.90;;;9.40;99.90;;;;;;4934758;29;20263;-65
2022/04/06 04:27:41;;;;;;;14.70;6.10;;;9.40;99.90;;;;;;4924908;29;20275;-65
2022/04/06 04:30:10;;;;;;;18.50;7.47;;;9.30;99.90;;;;;;4926856;29;20240;-64
2022/04/06 04:32:37;;;;;;;13.30;6.97;;;9.40;99.90;;;;;;4925214;29;20207;-63
2022/04/06 04:35:06;;;;;;;16.70;7.37;;;9.40;99.90;;;;;;4915751;29;20200;-64
2022/04/06 04:37:34;;;;;;;16.33;7.20;;;9.30;92.80;;;;;;4907191;29;20585;-64
2022/04/06 04:40:03;;;;;;;14.30;6.20;;;9.30;99.90;;;;;;4908322;29;20207;-63
2022/04/06 04:42:30;;;;;;;10.53;6.57;;;9.30;36.40;;;;;;4923459;29;20200;-64
2022/04/06 04:45:00;;;;;;;15.33;7.43;;;9.30;43.50;;;;;;4906990;29;20208;-65
2022/04/06 04:47:27;;;;;;;14.33;6.33;;;9.20;21.90;;;;;;4923325;29;20248;-65
2022/04/06 04:49:54;;;;;;;16.53;8.10;;;9.20;21.00;;;;;;4905646;29;20583;-64
2022/04/06 04:52:23;;;;;;;12.80;7.50;;;9.20;1.00;;;;;;4921942;29;20243;-64
2022/04/06 04:54:50;;;;;;;15.63;7.33;;;9.30;1.00;;;;;;4923677;29;20579;-65
2022/04/06 04:57:17;;;;;;;15.07;8.17;;;9.20;1.00;;;;;;4920415;29;20227;-65
2022/04/06 04:59:47;;;;;;;10.40;6.73;;;9.20;1.00;;;;;;4921007;29;20756;-65
2022/04/06 05:02:14;;;;;;;11.13;6.97;;;9.20;1.00;;;;;;4906109;29;20196;-65
2022/04/06 05:04:41;;;;;;;27.07;11.53;;;9.10;1.00;;;;;;4924202;29;20253;-64
2022/04/06 05:07:09;;;;;;;25.63;10.50;;;9.10;1.00;;;;;;4922900;29;20227;-66
2022/04/06 05:09:36;;;;;;;18.40;8.33;;;9.10;1.00;;;;;;4922005;29;20621;-67
2022/04/06 05:12:03;;;;;;;20.63;9.73;;;9.10;1.00;;;;;;4923335;29;20697;-66
2022/04/06 05:14:33;;;;;;;13.00;6.10;;;9.10;1.00;;;;;;4922445;29;20279;-65
2022/04/06 05:17:01;;;;;;;13.27;6.03;;;9.10;1.00;;;;;;4923170;29;20276;-64
2022/04/06 05:19:28;;;;;;;15.80;6.30;;;9.10;1.00;;;;;;4925606;29;20644;-67
2022/04/06 05:21:55;;;;;;;11.37;5.67;;;9.10;1.00;;;;;;4905987;29;20201;-67
2022/04/06 05:24:22;;;;;;;8.97;5.20;;;9.10;1.00;;;;;;4921754;29;20231;-66
2022/04/06 05:26:49;;;;;;;11.47;5.50;;;9.20;1.00;;;;;;4920268;29;20228;-66
2022/04/06 05:29:16;;;;;;;12.37;5.23;;;9.20;1.00;;;;;;4905839;29;20192;-65
2022/04/06 05:31:43;;;;;;;9.30;4.90;;;9.30;1.00;;;;;;4905869;29;20738;-65
2022/04/06 05:34:10;;;;;;;10.47;4.90;;;9.30;1.00;;;;;;4924628;29;20556;-65
2022/04/06 05:36:37;;;;;;;9.60;5.10;;;9.40;1.00;;;;;;4924461;29;20197;-69
2022/04/06 05:39:05;;;;;;;10.20;4.77;;;9.50;1.00;;;;;;4921819;29;20319;-66
2022/04/06 05:41:32;;;;;;;12.13;4.97;;;9.50;1.00;;;;;;4907666;29;20210;-66
2022/04/06 05:43:59;;;;;;;16.23;5.60;;;9.50;1.00;;;;;;4908073;29;20211;-65
2022/04/06 05:46:26;;;;;;;14.10;5.00;;;9.50;1.00;;;;;;4906176;29;20220;-66
2022/04/06 05:48:56;;;;;;;12.80;5.20;;;9.50;1.00;;;;;;4922580;29;20212;-66
2022/04/06 05:51:23;;;;;;;9.37;4.43;;;9.60;1.00;;;;;;4920618;29;20227;-66
2022/04/06 05:53:50;;;;;;;11.20;4.63;;;9.60;1.00;;;;;;4925112;29;20278;-67
2022/04/06 05:56:19;;;;;;;10.47;4.53;;;9.70;1.00;;;;;;4905304;29;20315;-67
2022/04/06 05:58:46;;;;;;;9.20;4.63;;;9.70;1.00;;;;;;4904741;29;20219;-64
2022/04/06 06:01:13;;;;;;;8.70;4.13;;;9.70;99.90;;;;;;4924480;29;20224;-67
2022/04/06 06:03:40;;;;;;;8.73;4.10;;;9.70;99.90;;;;;;4923431;29;20568;-67
2022/04/06 06:06:07;;;;;;;10.63;4.80;;;9.70;99.90;;;;;;4907156;29;20674;-67
2022/04/06 06:08:34;;;;;;;9.53;4.03;;;9.70;99.90;;;;;;4926194;29;20224;-66
2022/04/06 06:11:02;;;;;;;10.97;4.53;;;9.80;99.90;;;;;;4921673;29;20205;-65
2022/04/06 06:13:29;;;;;;;15.20;4.60;;;9.80;99.90;;;;;;4906934;29;20686;-65
2022/04/06 06:15:57;;;;;;;7.03;4.03;;;9.70;99.90;;;;;;4921474;29;20208;-65
2022/04/06 06:18:25;;;;;;;9.43;3.80;;;9.80;99.90;;;;;;4912456;29;20766;-65
2022/04/06 06:20:52;;;;;;;12.13;4.10;;;9.80;99.90;;;;;;4921042;29;20271;-66
2022/04/06 06:23:19;;;;;;;8.10;3.90;;;9.80;99.90;;;;;;4920486;29;20251;-68
2022/04/06 06:25:46;;;;;;;16.77;4.53;;;9.80;99.90;;;;;;4914172;29;20215;-65
2022/04/06 06:28:13;;;;;;;7.13;3.63;;;9.90;99.90;;;;;;4903111;29;20220;-65
2022/04/06 06:30:40;;;;;;;6.33;3.20;;;9.80;99.90;;;;;;4911414;29;20228;-65
2022/04/06 06:33:08;;;;;;;7.43;3.67;;;9.90;99.90;;;;;;4921984;29;20199;-68
2022/04/06 06:35:34;;;;;;;9.27;3.90;;;9.80;99.90;;;;;;4923737;29;20333;-67
2022/04/06 06:38:01;;;;;;;11.97;3.60;;;9.80;99.90;;;;;;4908436;29;20240;-67
2022/04/06 06:40:28;;;;;;;9.10;3.63;;;9.80;99.90;;;;;;4919405;29;20207;-67
2022/04/06 06:42:55;;;;;;;11.43;4.73;;;9.90;99.90;;;;;;4922571;29;20300;-66
2022/04/06 06:45:23;;;;;;;8.33;3.80;;;9.90;99.90;;;;;;4922749;29;20235;-67
2022/04/06 06:47:51;;;;;;;9.10;3.47;;;9.90;99.90;;;;;;4920017;29;20361;-67
2022/04/06 06:50:18;;;;;;;10.40;3.20;;;9.90;99.90;;;;;;4922047;29;20192;-65
2022/04/06 06:52:49;;;;;;;11.63;3.63;;;9.90;66.90;;;;;;4921657;29;20200;-64
2022/04/06 06:55:19;;;;;;;8.17;3.23;;;10.00;60.80;;;;;;4920700;29;20215;-64
2022/04/06 06:57:47;;;;;;;7.90;3.27;;;10.00;83.40;;;;;;4922737;29;20299;-65
2022/04/06 07:00:14;;;;;;;11.40;3.50;;;10.00;78.70;;;;;;4921680;29;20196;-65
2022/04/06 07:02:42;;;;;;;11.43;3.87;;;10.10;39.30;;;;;;4920631;29;20206;-67
2022/04/06 07:05:11;;;;;;;8.23;3.43;;;10.10;41.70;;;;;;4904626;29;20307;-66
2022/04/06 07:08:07;;;;;;;13.20;4.03;;;10.20;19.00;;;;;;4923468;29;20706;-67
2022/04/06 07:10:34;;;;;;;6.50;3.40;;;10.10;14.90;;;;;;4918533;29;20203;-68
2022/04/06 07:13:01;;;;;;;13.57;4.17;;;10.10;42.30;;;;;;4921989;29;20219;-66
2022/04/06 07:15:31;;;;;;;14.77;4.30;;;10.10;47.00;;;;;;4921651;29;20208;-67
2022/04/06 07:17:58;;;;;;;7.27;3.60;;;10.10;95.10;;;;;;4921567;29;20212;-68
2022/04/06 07:20:31;;;;;;;12.70;3.97;;;10.10;99.90;;;;;;4921328;29;20251;-66
2022/04/06 07:22:58;;;;;;;8.00;3.57;;;10.10;33.40;;;;;;4905446;29;20207;-67
2022/04/06 07:25:25;;;;;;;11.57;3.47;;;10.00;9.10;;;;;;4911515;29;20556;-66
2022/04/06 07:27:52;;;;;;;7.63;3.17;;;10.10;1.00;;;;;;4907393;29;20220;-67
2022/04/06 07:30:19;;;;;;;12.00;3.77;;;10.20;1.00;;;;;;4926012;29;20254;-68
2022/04/06 07:32:46;;;;;;;6.27;3.10;;;10.30;1.00;;;;;;4923930;29;20255;-67
2022/04/06 07:35:13;;;;;;;5.67;2.47;;;10.30;1.00;;;;;;4926043;29;20234;-65
2022/04/06 07:37:45;;;;;;;6.33;2.90;;;10.30;1.00;;;;;;4926839;29;20214;-64
2022/04/06 07:40:14;;;;;;;5.77;3.20;;;10.30;1.00;;;;;;4913751;29;20195;-64
2022/04/06 07:42:42;;;;;;;6.40;2.93;;;10.40;1.00;;;;;;4923848;29;20239;-64
2022/04/06 07:45:16;;;;;;;7.90;3.30;;;10.40;1.00;;;;;;4923986;29;20208;-65
2022/04/06 07:47:47;;;;;;;8.77;3.13;;;10.30;1.00;;;;;;4907887;29;20253;-65
2022/04/06 07:50:15;;;;;;;7.60;3.27;;;10.20;1.00;;;;;;4924070;29;20196;-65
2022/04/06 07:52:43;;;;;;;7.70;2.90;;;10.20;1.00;;;;;;4909066;29;20278;-64
2022/04/06 07:55:11;;;;;;;9.97;3.30;;;10.30;1.00;;;;;;4927342;29;20196;-65
2022/04/06 07:57:38;;;;;;;8.13;4.20;;;10.20;1.00;;;;;;4926345;29;20219;-64
2022/04/06 08:00:15;;;;;;;7.93;3.43;;;10.20;1.00;;;;;;4925822;29;20191;-64
2022/04/06 08:02:45;;;;;;;9.37;3.37;;;10.30;1.00;;;;;;4908243;29;20700;-64
2022/04/06 08:05:15;;;;;;;8.50;3.60;;;10.30;1.00;;;;;;4910106;29;20201;-65
2022/04/06 08:07:45;;;;;;;8.43;3.53;;;10.20;1.00;;;;;;4924805;29;20204;-65
2022/04/06 08:10:15;;;;;;;16.00;3.47;;;10.10;27.20;;;;;;4905588;29;20535;-65
2022/04/06 08:12:42;;;;;;;8.10;3.70;;;10.20;83.00;;;;;;4907761;29;20216;-65
2022/04/06 08:15:10;;;;;;;6.47;3.40;;;10.10;99.90;;;;;;4924462;29;20228;-65
2022/04/06 08:17:43;;;;;;;7.73;3.43;;;10.10;99.90;;;;;;4923008;29;20278;-65
2022/04/06 08:20:12;;;;;;;9.83;4.03;;;10.10;99.90;;;;;;4903177;29;20199;-65
2022/04/06 08:26:48;;;;;;;6.23;3.80;;;10.00;99.90;;;;;;4926837;29;20198;-64
2022/04/06 08:29:15;;;;;;;14.20;4.57;;;10.00;99.90;;;;;;4923995;29;20216;-64
2022/04/06 08:31:42;;;;;;;12.07;4.37;;;9.90;99.90;;;;;;4923388;29;20263;-63
2022/04/06 08:34:11;;;;;;;9.77;4.60;;;9.80;99.90;;;;;;4923469;29;20239;-66
2022/04/06 08:36:43;;;;;;;6.80;3.90;;;9.90;99.90;;;;;;4926252;29;20223;-64
2022/04/06 08:39:13;;;;;;;7.50;4.23;;;9.90;99.90;;;;;;4924336;29;20254;-65
2022/04/06 08:41:40;;;;;;;9.60;3.80;;;10.00;99.90;;;;;;4926123;29;20286;-65
2022/04/06 08:44:09;;;;;;;9.70;3.93;;;10.10;99.90;;;;;;4923925;29;20250;-65
2022/04/06 08:46:38;;;;;;;8.67;4.03;;;10.20;99.90;;;;;;4924250;29;20211;-65
2022/04/06 08:49:05;;;;;;;7.37;3.50;;;10.30;99.90;;;;;;4924127;29;20229;-64
2022/04/06 08:51:35;;;;;;;10.27;3.70;;;10.20;99.90;;;;;;4925265;29;20310;-65
2022/04/06 08:54:04;;;;;;;11.40;3.27;;;10.30;99.90;;;;;;4922206;29;20288;-65
2022/04/06 08:56:31;;;;;;;6.57;3.90;;;10.30;92.70;;;;;;4923879;29;20217;-65
2022/04/06 08:59:01;;;;;;;10.27;4.43;;;10.30;53.10;;;;;;4926427;29;20298;-66
2022/04/06 09:01:31;;;;;;;8.00;3.70;;;10.10;99.90;;;;;;4908693;29;20317;-64
2022/04/06 09:04:00;;;;;;;9.43;3.60;;;10.20;99.90;;;;;;4906810;29;20214;-64
2022/04/06 09:06:47;;;;;;;7.07;3.43;;;10.30;66.90;;;;;;4924568;29;20230;-65
2022/04/06 09:09:21;;;;;;;11.87;3.70;;;10.40;1.00;;;;;;4925063;29;20230;-67
2022/04/06 09:11:48;;;;;;;5.83;3.60;;;10.50;1.00;;;;;;4921506;29;20212;-65
2022/04/06 09:14:38;;;;;;;7.93;3.40;;;10.70;1.00;;;;;;4919390;29;20196;-67
2022/04/06 09:17:07;;;;;;;8.33;3.93;;;10.70;1.00;;;;;;4920275;29;20193;-66
2022/04/06 09:19:38;;;;;;;8.87;3.37;;;10.70;1.00;;;;;;4922156;29;20649;-66
2022/04/06 09:22:08;;;;;;;6.00;2.70;;;10.80;1.00;;;;;;4908021;29;20298;-66
2022/04/06 09:24:35;;;;;;;7.90;2.73;;;10.90;1.00;;;;;;4922862;29;20682;-66
2022/04/06 09:27:03;;;;;;;5.67;2.57;;;11.00;1.00;;;;;;4923087;29;20600;-65
2022/04/06 09:29:31;;;;;;;7.37;3.10;;;11.00;1.00;;;;;;4908042;29;20216;-66
2022/04/06 09:32:10;;;;;;;6.17;2.80;;;10.80;1.00;;;;;;4904338;29;20540;-66
2022/04/06 09:34:57;;;;;;;7.83;3.63;;;10.80;1.00;;;;;;4903869;29;20721;-66
2022/04/06 09:37:33;;;;;;;5.93;2.83;;;10.70;1.00;;;;;;4903884;29;20193;-66
2022/04/06 09:40:08;;;;;;;6.97;2.50;;;10.40;1.00;;;;;;4903806;29;20195;-65
2022/04/06 09:42:38;;;;;;;6.30;2.83;;;10.40;1.00;;;;;;4904845;29;20272;-67
2022/04/06 09:47:53;;;;;;;11.20;2.80;;;10.80;1.00;;;;;;4919296;29;20727;-65
2022/04/06 09:50:23;;;;;;;4.60;2.30;;;10.70;1.00;;;;;;4904347;29;20966;-66
2022/04/06 09:52:51;;;;;;;5.30;2.67;;;10.80;1.00;;;;;;4903336;29;20192;-65
2022/04/06 09:55:21;;;;;;;7.80;2.80;;;11.20;1.00;;;;;;4901903;29;20200;-66
2022/04/06 09:57:51;;;;;;;6.67;2.40;;;11.60;1.00;;;;;;4908277;29;20692;-65
2022/04/06 10:00:20;;;;;;;7.27;2.30;;;11.70;1.00;;;;;;4906294;29;20196;-66
2022/04/06 10:03:11;;;;;;;3.80;2.43;;;11.80;1.00;;;;;;4915390;29;20564;-65
2022/04/06 10:05:40;;;;;;;5.67;2.40;;;11.70;99.90;;;;;;4916881;29;20231;-65
2022/04/06 10:08:09;;;;;;;7.10;2.67;;;11.40;99.90;;;;;;4923009;29;20922;-64
2022/04/06 10:10:41;;;;;;;7.40;2.33;;;11.30;1.00;;;;;;4905351;29;20196;-65
2022/04/06 10:13:08;;;;;;;7.30;2.80;;;11.20;99.90;;;;;;4902084;29;20204;-65
2022/04/06 10:15:57;;;;;;;5.77;2.30;;;11.20;1.00;;;;;;4913947;29;20200;-65
2022/04/06 10:18:27;;;;;;;4.20;2.40;;;11.20;1.00;;;;;;4918430;29;20212;-65
2022/04/06 10:21:13;;;;;;;5.33;2.47;;;11.30;1.00;;;;;;4905609;29;20205;-66
2022/04/06 10:24:18;;;;;;;8.70;2.63;;;11.20;99.90;;;;;;4903882;29;20208;-64
2022/04/06 10:27:14;;;;;;;4.33;2.27;;;11.10;99.90;;;;;;4877648;29;20212;-64
2022/04/06 10:30:23;;;;;;;6.53;2.33;;;11.20;99.90;;;;;;4920722;29;20259;-64
2022/04/06 10:32:51;;;;;;;5.00;2.20;;;11.10;99.90;;;;;;4921564;29;20672;-64
2022/04/06 10:35:18;;;;;;;7.23;2.10;;;11.00;99.90;;;;;;4923228;29;20220;-64
2022/04/06 10:37:48;;;;;;;7.27;2.20;;;11.00;99.90;;;;;;4923066;29;20203;-67
2022/04/06 10:40:15;;;;;;;6.23;2.27;;;11.10;1.00;;;;;;4921378;29;20203;-65
2022/04/06 10:42:45;;;;;;;5.57;1.80;;;11.20;99.90;;;;;;4921298;29;20211;-65
2022/04/06 10:45:28;;;;;;;8.80;2.63;;;11.20;99.90;;;;;;4923272;29;20289;-64
2022/04/06 10:48:20;;;;;;;4.20;2.20;;;11.30;99.90;;;;;;4922033;29;21954;-66
2022/04/06 10:50:49;;;;;;;6.03;2.20;;;11.10;1.00;;;;;;4906272;29;20286;-64
2022/04/06 10:53:26;;;;;;;3.37;1.97;;;11.00;1.00;;;;;;4922600;29;20203;-65
2022/04/06 10:56:16;;;;;;;4.47;1.80;;;11.00;1.00;;;;;;4923371;29;20215;-65
2022/04/06 10:58:56;;;;;;;4.40;2.00;;;11.10;1.00;;;;;;4910730;29;20227;-65
2022/04/06 11:01:31;;;;;;;4.17;2.00;;;11.20;1.00;;;;;;4923702;29;20714;-65
2022/04/06 11:04:16;;;;;;;4.87;1.80;;;11.30;1.00;;;;;;4921320;29;20199;-65
2022/04/06 11:06:52;;;;;;;3.40;1.97;;;11.00;1.00;;;;;;4927149;29;20207;-64
2022/04/06 11:12:17;;;;;;;5.27;1.87;;;11.10;99.90;;;;;;4927676;29;20321;-65
2022/04/06 11:15:10;;;;;;;5.63;2.23;;;11.00;1.00;;;;;;4905112;29;20250;-64
2022/04/06 11:17:39;;;;;;;6.73;2.00;;;11.20;1.00;;;;;;4911438;29;20203;-64
2022/04/06 11:20:17;;;;;;;5.60;2.10;;;11.20;1.00;;;;;;4924096;29;20218;-65
2022/04/06 11:22:54;;;;;;;3.83;1.80;;;11.30;99.90;;;;;;4927493;29;20212;-65
2022/04/06 11:25:24;;;;;;;5.10;1.90;;;11.40;99.90;;;;;;4924845;29;20199;-65
2022/04/06 11:27:51;;;;;;;5.80;2.40;;;11.50;99.90;;;;;;4927207;29;20247;-65
2022/04/06 11:30:20;;;;;;;6.63;2.33;;;11.50;99.90;;;;;;4926764;29;20240;-64
2022/04/06 11:32:58;;;;;;;10.70;2.37;;;11.50;99.90;;;;;;4923509;29;20204;-65
2022/04/06 11:35:31;;;;;;;6.03;2.60;;;11.40;99.90;;;;;;4925717;29;20200;-64
2022/04/06 11:37:58;;;;;;;5.83;3.00;;;11.50;99.90;;;;;;4925845;29;21239;-66
2022/04/06 11:40:27;;;;;;;7.37;3.10;;;11.50;99.90;;;;;;4896530;29;20205;-64
2022/04/06 11:42:55;;;;;;;4.97;2.90;;;11.40;99.90;;;;;;4926094;29;20208;-66
2022/04/06 11:45:27;;;;;;;4.73;2.70;;;11.40;99.90;;;;;;4923940;29;20625;-65
2022/04/06 11:48:00;;;;;;;5.03;3.07;;;11.50;99.90;;;;;;4908181;29;20226;-65
2022/04/06 11:50:31;;;;;;;10.50;3.70;;;11.50;99.90;;;;;;4910136;29;20215;-65
2022/04/06 11:53:06;;;;;;;8.37;3.30;;;11.30;1.00;;;;;;4922909;29;20632;-65
2022/04/06 11:55:48;;;;;;;12.87;3.90;;;11.20;1.00;;;;;;4907090;29;20200;-64
2022/04/06 11:58:34;;;;;;;5.97;2.70;;;11.20;1.00;;;;;;4924035;29;20294;-65
2022/04/06 12:01:01;;;;;;;9.30;3.53;;;11.20;1.00;;;;;;4926930;29;20200;-64
2022/04/06 12:03:33;;;;;;;9.93;2.70;;;11.10;1.00;;;;;;4925649;29;20211;-65
2022/04/06 12:06:01;;;;;;;10.37;3.27;;;11.10;1.00;;;;;;4926393;29;20677;-65
2022/04/06 12:08:31;;;;;;;5.03;2.70;;;10.90;1.00;;;;;;4924006;29;20207;-65
2022/04/06 12:10:59;;;;;;;7.90;2.93;;;10.90;1.00;;;;;;4908912;29;20231;-65
2022/04/06 12:13:36;;;;;;;4.33;2.80;;;11.00;1.00;;;;;;4923890;29;20200;-65
2022/04/06 12:16:04;;;;;;;5.87;3.20;;;11.10;1.00;;;;;;4924615;29;20187;-65
2022/04/06 12:18:32;;;;;;;4.13;3.20;;;11.10;1.00;;;;;;4924921;29;20196;-65
2022/04/06 12:21:00;;;;;;;8.23;3.67;;;11.20;1.00;;;;;;4910913;29;20219;-65
2022/04/06 12:23:29;;;;;;;7.10;4.87;;;11.00;1.00;;;;;;4921714;29;20569;-65
2022/04/06 12:25:57;;;;;;;4.37;3.97;;;11.00;21.80;;;;;;4922425;29;20291;-67
2022/04/06 12:28:28;;;;;;;5.77;4.70;;;11.00;99.90;;;;;;4925216;29;20220;-66
2022/04/06 12:30:59;;;;;;;9.23;5.53;;;10.90;99.90;;;;;;4926029;29;20239;-68
2022/04/06 12:33:45;;;;;;;7.73;5.30;;;10.80;99.90;;;;;;4893077;29;20207;-66
2022/04/06 12:36:17;;;;;;;8.10;5.00;;;10.80;99.90;;;;;;4923714;29;20760;-66
2022/04/06 12:39:01;;;;;;;10.00;5.27;;;10.80;99.90;;;;;;4924906;29;20200;-67
2022/04/06 12:41:34;;;;;;;10.00;6.57;;;10.70;1.00;;;;;;4924971;29;20200;-66
2022/04/06 12:44:03;;;;;;;8.27;6.70;;;10.70;1.00;;;;;;4924737;29;20196;-67
2022/04/06 12:46:41;;;;;;;10.70;7.23;;;10.80;1.00;;;;;;4925073;29;20833;-67
2022/04/06 12:49:20;;;;;;;7.87;6.47;;;10.60;1.00;;;;;;4924629;29;20216;-67
2022/04/06 12:51:48;;;;;;;14.37;9.40;;;10.30;1.00;;;;;;4926998;29;20206;-67
2022/04/06 12:54:17;;;;;;;12.07;9.10;;;10.40;8.50;;;;;;4907958;29;20211;-66
2022/04/06 12:57:07;;;;;;;12.90;8.10;;;10.40;28.00;;;;;;4925288;29;20225;-65
2022/04/06 12:59:39;;;;;;;11.07;7.83;;;10.30;62.60;;;;;;4924972;29;20206;-67
2022/04/06 13:02:24;;;;;;;12.33;8.80;;;10.20;99.90;;;;;;4911493;29;20223;-66
2022/04/06 13:04:52;;;;;;;16.47;9.50;;;10.10;99.90;;;;;;4907349;29;20199;-67
2022/04/06 13:07:21;;;;;;;9.37;7.43;;;10.20;99.90;;;;;;4924452;29;20203;-65
2022/04/06 13:10:05;;;;;;;8.40;7.47;;;9.90;1.00;;;;;;4922447;29;20298;-66
2022/04/06 13:12:33;;;;;;;11.60;6.77;;;10.00;1.00;;;;;;4922159;29;20196;-64
2022/04/06 13:15:04;;;;;;;11.63;8.50;;;9.80;1.00;;;;;;4908552;29;20223;-66
2022/04/06 13:17:32;;;;;;;10.63;8.73;;;10.00;1.00;;;;;;4921292;29;20231;-66
2022/04/06 13:19:59;;;;;;;9.63;8.00;;;9.90;1.00;;;;;;4907544;29;20231;-66